Tiempo atmosférico en la estación meteorológica de Ballobar, Huesca (178 m.)



Fecha
DESCASC
Temp. máxima en grados centígrados (hora)
DESCASC
Temp. mínima en grados centígrados (hora)
DESCASC
Temp. media en grados centígrados
DESCASC
Racha de viento máxima en m/sg (hora)
DESCASC
Velocidad máxima media en intervalos de 10 minutos(hora)
DESCASC
Precipitaciones diarias en mm
DESCASC
Precipitaciones de 00:00 a 06:00 en mm
DESCASC
Precipitaciones de 06:00 a 12:00 en mm
DESCASC
Precipitaciones de 12:00 a 18:00 en mm
DESCASC
Precipitaciones de 18:00 a 24:00 en mm
DESCASC
15-08-2019 33.9 (18:30) 19.5 (06:50) 26.7 10.56 (17:50) 6.67 (17:50) 0 0 0 0 0
14-08-2019 33.9 (17:50) 13.7 (00:00) 23.8 9.44 (15:40) 6.39 (18:30) 0 0 0 0 0
13-08-2019 29.3 (17:50) 15.1 (00:00) 22.2 9.17 (17:30) 5.83 (18:50) 0 0 0 0 0
12-08-2019 29.2 (16:40) 19.3 (00:00) 24.3 11.94 (00:20) 7.5 (21:40) 0 0 0 0 0
11-08-2019 33.7 (18:10) 22.9 (00:00) 28.3 11.39 (23:50) 6.67 (23:10) 0 0 0 0 0
10-08-2019 34.2 (15:50) 22.3 (00:00) 28.3 10.56 (00:20) 6.11 (02:00) 0 0 0 0 0
09-08-2019 39.8 (17:00) 20.7 (00:00) 30.3 15.28 (23:50) 9.72 (23:50) 0 0 0 0 0
08-08-2019 36.9 (17:30) 20.5 (00:00) 28.7 8.33 (16:20) 4.72 (18:30) 0 0 0 0 0
07-08-2019 32 (19:20) 22.7 (00:00) 27.4 8.06 (16:20) 5.56 (16:20) 0 0 0 0 0
06-08-2019 36.5 (16:20) 20.6 (00:00) 28.6 7.78 (00:10) 4.44 (00:10) 0 0 0 0 0
05-08-2019 36.1 (16:50) 20 (00:00) 28 9.17 (19:10) 6.67 (17:10) 0 0 0 0 0
04-08-2019 36.5 (16:40) 19.8 (00:00) 28.1 9.17 (19:20) 6.94 (19:30) 0 0 0 0 0
03-08-2019 35.8 (16:20) 18.9 (00:00) 27.3 10 (17:00) 6.67 (16:10) 0 0 0 0 0
02-08-2019 34.8 (16:50) 19 (00:00) 26.9 8.33 (19:50) 5.28 (09:40) 0 0 0 0 0
01-08-2019 33.6 (17:50) 19.2 (00:00) 26.4 9.72 (13:00) 5.56 (11:10) 0 0 0 0 0
31-07-2019 31.2 (17:00) 15.9 (00:00) 23.6 10 (19:10) 6.39 (17:20) 0 0 0 0 0
30-07-2019 31.6 (17:30) 18.4 (00:00) 25 9.17 (19:20) 6.11 (19:20) 0 0 0 0 0
29-07-2019 34.4 (17:20) 14.4 (00:00) 24.4 7.78 (21:20) 4.72 (21:20) 0 0 0 0 0
28-07-2019 30 (18:10) 16.9 (00:00) 23.4 16.11 (02:20) 10.28 (01:10) 0 0 0 0 0
27-07-2019 28.9 (16:50) 19.8 (00:00) 24.3 16.39 (22:50) 10.28 (23:20) 0.2 0 0.2 0 0
26-07-2019 30 (18:30) 23.3 (00:00) 26.6 13.33 (14:50) 9.72 (15:00) 0.2 0 0 0.2 0
25-07-2019 37 (15:50) 19.9 (00:00) 28.4 10.56 (17:20) 7.22 (14:50) 0 0 0 0 0
24-07-2019 38.7 (17:00) 19.7 (00:00) 29.2 10.28 (20:00) 6.11 (01:30) 0 0 0 0 0
23-07-2019 39.8 (17:10) 18.8 (00:00) 29.3 10.56 (18:40) 7.22 (18:40) 0 0 0 0 0
22-07-2019 38.8 (16:20) 19.1 (00:00) 28.9 11.11 (17:20) 7.78 (17:20) 0 0 0 0 0
21-07-2019 35.9 (15:30) 21.4 (00:00) 28.7 10.56 (15:50) 7.22 (16:10) 0 0 0 0 0
20-07-2019 36.3 (16:20) 21.4 (00:00) 28.8 11.11 (17:10) 7.22 (01:10) 0 0 0 0 0
19-07-2019 34 (16:50) 17.7 (00:00) 25.9 9.72 (17:20) 6.94 (17:20) 0 0 0 0 0

Gráficas

Temp. máximas Temp. mínimas Temp. medias Precipitaciones Rachas de viento máximas Velocidades máximas media en intervalos de 10 minutos

Datos horarios

Fecha y hora oficial Temperatura (ºC) Velocidad del viento (km/h) Dirección del viento Racha (km/h) Dirección de racha Precipitación (mm) Presión (hPa) Tendencia (hPa) Humedad (%)
2019-08-17 23:00:00 25.8 14 Este 22 Este 0 -- -- 64
2019-08-17 22:00:00 26.7 12 Este 23 Sudeste 0 -- -- 65
2019-08-17 21:00:00 29.4 12 Sudeste 26 Sudeste 0 -- -- 56
2019-08-17 20:00:00 31.3 13 Este 24 Este 0 -- -- 51
2019-08-17 19:00:00 33.1 20 Este 28 Nordeste 0 -- -- 47
2019-08-17 18:00:00 34.3 22 Este 30 Este 0 -- -- 45
2019-08-17 17:00:00 35.3 18 Este 29 Nordeste 0 -- -- 41
2019-08-17 16:00:00 34.7 15 Este 32 Este 0 -- -- 43
2019-08-17 15:00:00 33.8 13 Este 27 Este 0 -- -- 46
2019-08-17 14:00:00 32.5 15 Nordeste 29 Este 0 -- -- 50
2019-08-17 13:00:00 30.7 13 Este 22 Nordeste 0 -- -- 54
2019-08-17 12:00:00 29.4 15 Este 24 Este 0 -- -- 57
2019-08-17 11:00:00 27 10 Este 18 Nordeste 0 -- -- 64
2019-08-17 10:00:00 25 6 Nordeste 12 Nordeste 0 -- -- 67
2019-08-17 09:00:00 23 5 Nordeste 9 Nordeste 0 -- -- 74
2019-08-17 08:00:00 20.3 3 Este 5 Este 0 -- -- 82
2019-08-17 07:00:00 19.6 0 Calma 6 Este 0 -- -- 84
2019-08-17 06:00:00 20 0 Calma 9 Norte 0 -- -- 82
2019-08-17 05:00:00 21.1 0 Calma 5 Nordeste 0 -- -- 79
2019-08-17 04:00:00 22.5 2 Nordeste 13 Este 0 -- -- 75
2019-08-17 03:00:00 23.1 2 Norte 12 Noroeste 0 -- -- 73
2019-08-17 02:00:00 23.5 5 Nordeste 9 Nordeste 0 -- -- 70
2019-08-17 01:00:00 24.4 3 Norte 14 Este 0 -- -- 68
2019-08-17 00:00:00 25 6 Nordeste 12 Nordeste 0 -- -- 66
2019-08-16 23:00:00 26.7 3 Nordeste 9 Sur 0 -- -- 57
2019-08-16 22:00:00 28.4 2 Este 18 Este 0 -- -- 51
2019-08-16 21:00:00 30.6 7 Sudeste 19 Este 0 -- -- 47
2019-08-16 20:00:00 32 10 Nordeste 16 Nordeste 0 -- -- 39
2019-08-16 19:00:00 32.9 8 Nordeste 17 Este 0 -- -- 34
2019-08-16 18:00:00 33.1 10 Nordeste 17 Este 0 -- -- 32
2019-08-16 17:00:00 32.6 9 Nordeste 16 Este 0 -- -- 31
2019-08-16 16:00:00 32.4 7 Norte 20 Nordeste 0 -- -- 30
2019-08-16 15:00:00 31 11 Este 18 Este 0 -- -- 30
2019-08-16 14:00:00 28.6 9 Nordeste 18 Este 0 -- -- 34
2019-08-16 13:00:00 27 10 Nordeste 17 Nordeste 0 -- -- 39
2019-08-16 12:00:00 25.1 8 Este 15 Nordeste 0 -- -- 44
2019-08-16 11:00:00 23.1 7 Este 14 Este 0 -- -- 45
2019-08-16 10:00:00 21.2 5 Noroeste 12 Noroeste 0 -- -- 51
2019-08-16 09:00:00 19.1 6 Nordeste 10 Nordeste 0 -- -- 60
2019-08-16 08:00:00 17.6 0 Calma 6 Noroeste 0 -- -- 62
2019-08-16 07:00:00 16.3 6 Oeste 12 Oeste 0 -- -- 65
2019-08-16 06:00:00 16.4 5 Oeste 9 Oeste 0 -- -- 63
2019-08-16 05:00:00 17.3 3 Oeste 6 Noroeste 0 -- -- 58
2019-08-16 04:00:00 18.7 2 Este 8 Noroeste 0 -- -- 56
2019-08-16 03:00:00 19.8 3 Oeste 6 Noroeste 0 -- -- 52
2019-08-16 02:00:00 21.8 0 Calma 12 Norte 0 -- -- 46
2019-08-16 01:00:00 23 4 Nordeste 15 Este 0 -- -- 43
2019-08-16 00:00:00 25.1 4 Noroeste 24 Sudoeste 0 -- -- 36
2019-08-15 23:00:00 27 20 Sudoeste 28 Sudoeste 0 -- -- 33
2019-08-15 22:00:00 27.5 10 Oeste 15 Oeste 0 -- -- 33
2019-08-15 21:00:00 29.8 10 Oeste 20 Oeste 0 -- -- 30
2019-08-15 20:00:00 32.1 15 Oeste 28 Oeste 0 -- -- 27
2019-08-15 19:00:00 33 20 Oeste 31 Oeste 0 -- -- 24
2019-08-15 18:00:00 33.5 20 Oeste 38 Oeste 0 -- -- 27
2019-08-15 17:00:00 33.5 15 Oeste 28 Oeste 0 -- -- 32
2019-08-15 16:00:00 32.9 11 Noroeste 27 Oeste 0 -- -- 36
2019-08-15 15:00:00 31.9 10 Oeste 22 Oeste 0 -- -- 39
2019-08-15 14:00:00 30.3 10 Noroeste 24 Noroeste 0 -- -- 43
2019-08-15 13:00:00 29.3 12 Noroeste 22 Oeste 0 -- -- 46
2019-08-15 12:00:00 27.6 8 Noroeste 20 Oeste 0 -- -- 50
2019-08-15 11:00:00 25.7 12 Noroeste 18 Noroeste 0 -- -- 56
2019-08-15 10:00:00 23.4 12 Noroeste 21 Oeste 0 -- -- 62
2019-08-15 09:00:00 22.5 5 Nordeste 13 Sudoeste 0 -- -- 65
2019-08-15 08:00:00 20.2 10 Sudoeste 19 Sudoeste 0 -- -- 68
2019-08-15 07:00:00 19.6 12 Sudoeste 15 Sudoeste 0 -- -- 68
2019-08-15 06:00:00 20.1 6 Oeste 13 Sudoeste 0 -- -- 64
2019-08-15 05:00:00 21.4 2 Este 9 Nordeste 0 -- -- 58
2019-08-15 04:00:00 22.4 4 Oeste 9 Oeste 0 -- -- 56
2019-08-15 03:00:00 23.6 3 Sur 12 Oeste 0 -- -- 48
2019-08-15 02:00:00 24.7 5 Sudoeste 12 Nordeste 0 -- -- 44
2019-08-15 01:00:00 25.7 4 Oeste 9 Norte 0 -- -- 43
2019-08-15 00:00:00 25.7 4 Noroeste 12 Noroeste 0 -- -- 40
2019-08-14 23:00:00 26.2 10 Oeste 14 Oeste 0 -- -- 36
2019-08-14 22:00:00 27.9 9 Oeste 13 Oeste 0 -- -- 34
2019-08-14 21:00:00 30 8 Noroeste 21 Oeste 0 -- -- 31
2019-08-14 20:00:00 32.6 13 Oeste 28 Oeste 0 -- -- 28
2019-08-14 19:00:00 33.4 18 Oeste 33 Oeste 0 -- -- 26
2019-08-14 18:00:00 33.4 20 Oeste 30 Oeste 0 -- -- 25
2019-08-14 17:00:00 33.4 17 Oeste 33 Sudoeste 0 -- -- 24
2019-08-14 16:00:00 32.9 14 Oeste 34 Oeste 0 -- -- 25
2019-08-14 15:00:00 32 17 Oeste 25 Oeste 0 -- -- 24
2019-08-14 14:00:00 30.4 11 Noroeste 26 Noroeste 0 -- -- 27
2019-08-14 13:00:00 28.3 6 Noroeste 18 Norte 0 -- -- 30
2019-08-14 12:00:00 25.3 7 Sur 15 Sur 0 -- -- 36
2019-08-14 11:00:00 23 4 Sur 16 Oeste 0 -- -- 41
2019-08-14 10:00:00 19.8 10 Sudoeste 15 Sudoeste 0 -- -- 50
2019-08-14 09:00:00 17.8 3 Oeste 12 Oeste 0 -- -- 59
2019-08-14 08:00:00 14.9 6 Oeste 10 Oeste 0 -- -- 69
2019-08-14 07:00:00 13.8 5 Noroeste 9 Oeste 0 -- -- 73
2019-08-14 06:00:00 14.4 5 Noroeste 8 Noroeste 0 -- -- 69
2019-08-14 05:00:00 14.9 5 Noroeste 9 Oeste 0 -- -- 67
2019-08-14 04:00:00 16.1 8 Oeste 23 Sudoeste 0 -- -- 62
2019-08-14 03:00:00 18.3 19 Sudoeste 24 Oeste 0 -- -- 57
2019-08-14 02:00:00 18.8 14 Sudoeste 20 Sudoeste 0 -- -- 48
2019-08-14 01:00:00 18.3 5 Oeste 12 Noroeste 0 -- -- 47
2019-08-14 00:00:00 19.4 3 Oeste 9 Oeste 0 -- -- 42
2019-08-13 23:00:00 21 3 Oeste 10 Noroeste 0 -- -- 39
2019-08-13 22:00:00 22.5 5 Oeste 22 Oeste 0 -- -- 36
2019-08-13 21:00:00 25.8 14 Oeste 23 Oeste 0 -- -- 29
2019-08-13 20:00:00 28 15 Oeste 26 Oeste 0 -- -- 25
2019-08-13 19:00:00 28.9 16 Oeste 32 Noroeste 0 -- -- 25
2019-08-13 18:00:00 29 18 Oeste 33 Oeste 0 -- -- 24
2019-08-13 17:00:00 28.6 12 Oeste 24 Oeste 0 -- -- 27
2019-08-13 16:00:00 27.5 8 Noroeste 24 Noroeste 0 -- -- 34
2019-08-13 15:00:00 26.1 16 Oeste 31 Noroeste 0 -- -- 37
2019-08-13 14:00:00 24.4 11 Oeste 22 Oeste 0 -- -- 41
2019-08-13 13:00:00 22.8 14 Noroeste 31 Oeste 0 -- -- 46
2019-08-13 12:00:00 21.7 10 Noroeste 22 Noroeste 0 -- -- 48
2019-08-13 11:00:00 19.6 13 Noroeste 26 Oeste 0 -- -- 53
2019-08-13 10:00:00 18.6 12 Oeste 23 Sudoeste 0 -- -- 57
2019-08-13 09:00:00 17.9 9 Sudoeste 17 Sudoeste 0 -- -- 59
2019-08-13 08:00:00 16 12 Sudoeste 22 Sudoeste 0 -- -- 66
2019-08-13 07:00:00 15.7 9 Sudoeste 18 Sur 0 -- -- 68
2019-08-13 06:00:00 15.1 3 Oeste 9 Oeste 0 -- -- 67
2019-08-13 05:00:00 15.9 6 Sudoeste 18 Sudoeste 0 -- -- 65
2019-08-13 04:00:00 15.9 9 Sudoeste 20 Sudoeste 0 -- -- 64
2019-08-13 03:00:00 16.5 11 Sudoeste 29 Sudoeste 0 -- -- 63
2019-08-13 02:00:00 17.2 17 Sudoeste 32 Sudoeste 0 -- -- 61
2019-08-13 01:00:00 17.9 17 Sudoeste 28 Oeste 0 -- -- 57
2019-08-13 00:00:00 19.8 24 Sudoeste 36 Oeste 0 -- -- 49
2019-08-12 23:00:00 20.9 15 Sudoeste 32 Oeste 0 -- -- 45
2019-08-12 22:00:00 21.8 21 Oeste 39 Oeste 0 -- -- 43
2019-08-12 21:00:00 23.9 20 Oeste 39 Oeste 0 -- -- 39
2019-08-12 20:00:00 26.4 26 Oeste 39 Oeste 0 -- -- 34
2019-08-12 19:00:00 28.1 24 Oeste 40 Noroeste 0 -- -- 26
2019-08-12 18:00:00 28.9 23 Noroeste 42 Oeste 0 -- -- 26
2019-08-12 17:00:00 28.9 24 Oeste 40 Oeste 0 -- -- 28
2019-08-12 16:00:00 28.8 22 Noroeste 43 Noroeste 0 -- -- 30
2019-08-12 15:00:00 28.7 22 Noroeste 40 Oeste 0 -- -- 32
2019-08-12 14:00:00 28 15 Oeste 32 Noroeste 0 -- -- 34
2019-08-12 13:00:00 26.4 17 Oeste 32 Noroeste 0 -- -- 39
2019-08-12 12:00:00 24.4 19 Noroeste 30 Noroeste 0 -- -- 47
2019-08-12 11:00:00 23.1 17 Noroeste 30 Oeste 0 -- -- 51
2019-08-12 10:00:00 21.2 12 Noroeste 22 Oeste 0 -- -- 56
2019-08-12 09:00:00 19.4 5 Oeste 25 Oeste 0 -- -- 63
2019-08-12 08:00:00 19.4 18 Oeste 31 Oeste 0 -- -- 62
2019-08-12 07:00:00 19.7 19 Oeste 30 Oeste 0 -- -- 61
2019-08-12 06:00:00 19.9 5 Sur 20 Sudoeste 0 -- -- 62
2019-08-12 05:00:00 22 18 Oeste 29 Oeste 0 -- -- 51
2019-08-12 04:00:00 22.8 15 Oeste 32 Oeste 0 -- -- 46
2019-08-12 03:00:00 23.8 17 Oeste 28 Oeste 0 -- -- 44
2019-08-12 02:00:00 24.4 10 Oeste 32 Oeste 0 -- -- 43
2019-08-12 01:00:00 25 21 Oeste 43 Oeste 0 -- -- 42
2019-08-12 00:00:00 25.8 23 Oeste 41 Oeste 0 -- -- 42
2019-08-11 23:00:00 27 23 Oeste 36 Noroeste 0 -- -- 40
2019-08-11 22:00:00 28.6 18 Oeste 28 Oeste 0 -- -- 37
2019-08-11 21:00:00 30.8 3 Norte 10 Oeste 0 -- -- 32
2019-08-11 20:00:00 32.6 7 Oeste 18 Oeste 0 -- -- 29
2019-08-11 19:00:00 33.2 13 Noroeste 21 Noroeste 0 -- -- 29
2019-08-11 18:00:00 33.5 10 Noroeste 26 Oeste 0 -- -- 29
2019-08-11 17:00:00 32.7 14 Noroeste 24 Noroeste 0 -- -- 34
2019-08-11 16:00:00 31.8 10 Oeste 26 Noroeste 0 -- -- 43
2019-08-11 15:00:00 31.3 10 Norte 21 Norte 0 -- -- 46
2019-08-11 14:00:00 29.9 10 Noroeste 23 Noroeste 0 -- -- 49
2019-08-11 13:00:00 28.9 9 Norte 17 Sur 0 -- -- 54
2019-08-11 12:00:00 26.9 10 Sudoeste 19 Sudoeste 0 -- -- 58
2019-08-11 11:00:00 25.5 13 Sudoeste 20 Sudoeste 0 -- -- 64
2019-08-11 10:00:00 25.1 11 Sudoeste 17 Sudoeste 0 -- -- 70
2019-08-11 09:00:00 24.1 6 Nordeste 14 Nordeste 0 -- -- 76
2019-08-11 08:00:00 23.6 9 Nordeste 16 Este 0 -- -- 77
2019-08-11 07:00:00 23 14 Este 19 Este 0 -- -- 79
2019-08-11 06:00:00 23.1 11 Nordeste 17 Nordeste 0 -- -- 81
2019-08-11 05:00:00 23.8 8 Este 19 Este 0 -- -- 81
2019-08-11 04:00:00 24.4 15 Este 21 Este 0 -- -- 78
2019-08-11 03:00:00 24.8 12 Este 22 Este 0 -- -- 77
2019-08-11 02:00:00 25.5 14 Este 22 Este 0 -- -- 75
2019-08-11 01:00:00 26.5 12 Este 26 Este 0 -- -- 67
2019-08-11 00:00:00 27.7 12 Este 21 Este 0 -- -- 61
2019-08-10 23:00:00 29.1 10 Sudeste 19 Sudeste 0 -- -- 57
2019-08-10 22:00:00 30 4 Sudeste 7 Sudeste 0 -- -- 39
2019-08-10 21:00:00 31.7 4 Este 13 Este 0 -- -- 37
2019-08-10 20:00:00 32.7 9 Nordeste 15 Nordeste 0 -- -- 35
2019-08-10 19:00:00 32.8 12 Nordeste 19 Este 0 -- -- 37
2019-08-10 18:00:00 33.6 11 Nordeste 17 Este 0 -- -- 34
2019-08-10 17:00:00 33.8 10 Nordeste 26 Nordeste 0 -- -- 32
2019-08-10 16:00:00 33.9 8 Nordeste 25 Nordeste 0 -- -- 31
2019-08-10 15:00:00 33.3 10 Nordeste 25 Este 0 -- -- 32
2019-08-10 14:00:00 32.7 11 Este 22 Este 0 -- -- 32
2019-08-10 13:00:00 31.6 13 Este 22 Este 0 -- -- 34
2019-08-10 12:00:00 29.6 6 Noroeste 20 Noroeste 0 -- -- 37
2019-08-10 11:00:00 28.4 11 Noroeste 22 Oeste 0 -- -- 40
2019-08-10 10:00:00 26.4 11 Oeste 23 Noroeste 0 -- -- 44
2019-08-10 09:00:00 25.4 5 Norte 13 Sudoeste 0 -- -- 45
2019-08-10 08:00:00 22.8 11 Sudoeste 17 Oeste 0 -- -- 55
2019-08-10 07:00:00 22.3 13 Sudoeste 22 Sudoeste 0 -- -- 57
2019-08-10 06:00:00 23.3 10 Sudoeste 22 Sudoeste 0 -- -- 55
2019-08-10 05:00:00 25.1 17 Sudoeste 24 Sudoeste 0 -- -- 44
2019-08-10 04:00:00 24.6 14 Sudoeste 25 Sudoeste 0 -- -- 51
2019-08-10 03:00:00 25.8 15 Oeste 33 Oeste 0 -- -- 48
2019-08-10 02:00:00 25.4 22 Sudoeste 31 Sudoeste 0 -- -- 52
2019-08-10 01:00:00 26.1 15 Oeste 38 Oeste 0 -- -- 50
2019-08-10 00:00:00 27.2 27 Noroeste 55 Noroeste 0 -- -- 51
2019-08-09 23:00:00 30.9 22 Oeste 35 Oeste 0 -- -- 45
2019-08-09 22:00:00 33 5 Nordeste 20 Este 0 -- -- 39
2019-08-09 21:00:00 36.1 14 Este 26 Este 0 -- -- 29
2019-08-09 20:00:00 36.4 12 Este 19 Este 0 -- -- 30
2019-08-09 19:00:00 37.6 14 Este 19 Este 0 -- -- 31
2019-08-09 18:00:00 38.4 12 Nordeste 24 Norte 0 -- -- 29
2019-08-09 17:00:00 39.8 11 Norte 34 Oeste 0 -- -- 29
2019-08-09 16:00:00 39.3 18 Oeste 39 Sudoeste 0 -- -- 22
2019-08-09 15:00:00 38.4 21 Oeste 36 Sudoeste 0 -- -- 23
2019-08-09 14:00:00 36.5 15 Noroeste 39 Oeste 0 -- -- 29
2019-08-09 13:00:00 34.8 10 Nordeste 18 Este 0 -- -- 38
2019-08-09 12:00:00 32.2 9 Nordeste 15 Este 0 -- -- 45
2019-08-09 11:00:00 29.6 8 Nordeste 13 Este 0 -- -- 51
2019-08-09 10:00:00 27.4 5 Este 11 Este 0 -- -- 54
2019-08-09 09:00:00 24.8 5 Este 10 Nordeste 0 -- -- 63
2019-08-09 08:00:00 22.2 0 Calma 6 Este 0 -- -- 65
2019-08-09 07:00:00 20.9 4 Noroeste 8 Oeste 0 -- -- 70
2019-08-09 06:00:00 21.7 0 Calma 6 Noroeste 0 -- -- 66
2019-08-09 05:00:00 22.6 5 Noroeste 6 Oeste 0 -- -- 63
2019-08-09 04:00:00 24.2 3 Nordeste 9 Nordeste 0 -- -- 59
2019-08-09 03:00:00 25.4 2 Nordeste 12 Nordeste 0 -- -- 57
2019-08-09 02:00:00 26.1 3 Este 10 Nordeste 0 -- -- 54
2019-08-09 01:00:00 27.5 6 Nordeste 16 Este 0 -- -- 51
2019-08-09 00:00:00 29.2 0 Calma 19 Este 0 -- -- 46
2019-08-08 23:00:00 30.8 9 Este 20 Este 0 -- -- 43
2019-08-08 22:00:00 31.2 12 Este 21 Sudeste 0 -- -- 45
2019-08-08 21:00:00 32.8 14 Este 22 Este 0 -- -- 41
2019-08-08 20:00:00 34 9 Nordeste 21 Nordeste 0 -- -- 37
2019-08-08 19:00:00 34.8 14 Nordeste 27 Nordeste 0 -- -- 35
2019-08-08 18:00:00 35.5 16 Nordeste 30 Oeste 0 -- -- 34
2019-08-08 17:00:00 36.2 6 Este 30 Sudoeste 0 -- -- 29
2019-08-08 16:00:00 35.4 14 Sudoeste 28 Oeste 0 -- -- 30
2019-08-08 15:00:00 35 10 Sudeste 22 Este 0 -- -- 30
2019-08-08 14:00:00 33.3 9 Oeste 22 Sur 0 -- -- 34
2019-08-08 13:00:00 32.8 8 Sudoeste 22 Sur 0 -- -- 35
2019-08-08 12:00:00 30.6 10 Noroeste 18 Oeste 0 -- -- 41
2019-08-08 11:00:00 28.7 5 Sur 14 Este 0 -- -- 50
2019-08-08 10:00:00 26.4 7 Este 13 Nordeste 0 -- -- 63
2019-08-08 09:00:00 24.2 5 Nordeste 8 Nordeste 0 -- -- 69
2019-08-08 08:00:00 21.9 2 Sur 10 Oeste 0 -- -- 73
2019-08-08 07:00:00 20.5 7 Noroeste 11 Oeste 0 -- -- 80
2019-08-08 06:00:00 21 3 Norte 10 Oeste 0 -- -- 73
2019-08-08 05:00:00 21.3 2 Noroeste 8 Oeste 0 -- -- 73
2019-08-08 04:00:00 22.4 6 Oeste 9 Oeste 0 -- -- 67
2019-08-08 03:00:00 23 3 Noroeste 6 Noroeste 0 -- -- 69
2019-08-08 02:00:00 23.9 3 Oeste 9 Noroeste 0 -- -- 66
2019-08-08 01:00:00 25 3 Este 5 Nordeste 0 -- -- 62
2019-08-08 00:00:00 25.9 4 Noroeste 8 Nordeste 0 -- -- 58
2019-08-07 23:00:00 27.4 6 Noroeste 10 Noroeste 0 -- -- 51
2019-08-07 22:00:00 28.3 0 Calma 14 Noroeste 0 -- -- 52
2019-08-07 21:00:00 29.8 9 Noroeste 25 Norte 0 -- -- 44
2019-08-07 20:00:00 31.2 12 Oeste 20 Sudoeste 0 -- -- 39
2019-08-07 19:00:00 31.8 8 Sudoeste 23 Sudoeste 0 -- -- 38
2019-08-07 18:00:00 31.2 13 Sudoeste 23 Sudoeste 0 -- -- 43
2019-08-07 17:00:00 31.3 12 Sudoeste 29 Sudoeste 0 -- -- 43
2019-08-07 16:00:00 30.7 17 Sudoeste 23 Sudoeste 0 -- -- 44
2019-08-07 15:00:00 30.6 13 Sur 26 Sur 0 -- -- 46
2019-08-07 14:00:00 30.5 12 Sur 20 Sur 0 -- -- 47
2019-08-07 13:00:00 30.1 8 Sudeste 19 Sudoeste 0 -- -- 53
2019-08-07 12:00:00 28.6 8 Sur 19 Sur 0 -- -- 58
2019-08-07 11:00:00 26.3 8 Oeste 16 Sudoeste 0 -- -- 64
2019-08-07 10:00:00 25.7 6 Sur 10 Sur 0 -- -- 67
2019-08-07 09:00:00 24.3 3 Sur 8 Sudoeste 0 -- -- 68
2019-08-07 08:00:00 22.8 6 Sudoeste 15 Sudoeste 0 -- -- 71
2019-08-07 07:00:00 23 10 Sudoeste 20 Sudoeste 0 -- -- 70
2019-08-07 06:00:00 23.5 10 Sur 21 Sur 0 -- -- 71
2019-08-07 05:00:00 24.7 9 Este 15 Este 0 -- -- 78
2019-08-07 04:00:00 25 12 Este 18 Este 0 -- -- 77
2019-08-07 03:00:00 25.5 12 Este 26 Este 0 -- -- 74
2019-08-07 02:00:00 25.9 15 Este 27 Este 0 -- -- 72
2019-08-07 01:00:00 26.6 9 Este 27 Este 0 -- -- 70
2019-08-07 00:00:00 27.6 13 Nordeste 18 Nordeste 0 -- -- 64
2019-08-06 23:00:00 29.3 2 Oeste 14 Este 0 -- -- 52
2019-08-06 22:00:00 31.2 9 Este 21 Este 0 -- -- 52
2019-08-06 21:00:00 32.3 12 Este 27 Este 0 -- -- 50
2019-08-06 20:00:00 34.2 8 Este 16 Este 0 -- -- 39
2019-08-06 19:00:00 35.5 11 Este 19 Este 0 -- -- 36
2019-08-06 18:00:00 35.7 13 Este 22 Nordeste 0 -- -- 38
2019-08-06 17:00:00 35.8 12 Este 21 Este 0 -- -- 37
2019-08-06 16:00:00 36.2 8 Norte 20 Sudoeste 0 -- -- 35
2019-08-06 15:00:00 34.9 10 Sudoeste 22 Sudoeste 0 -- -- 36
2019-08-06 14:00:00 33.8 12 Sur 23 Sudeste 0 -- -- 42
2019-08-06 13:00:00 31.9 6 Nordeste 21 Sudeste 0 -- -- 52
2019-08-06 12:00:00 29.7 11 Sur 23 Sudoeste 0 -- -- 56
2019-08-06 11:00:00 28.6 10 Sur 22 Sur 0 -- -- 60
2019-08-06 10:00:00 26 8 Nordeste 15 Nordeste 0 -- -- 62
2019-08-06 09:00:00 24.3 6 Nordeste 10 Nordeste 0 -- -- 61
2019-08-06 08:00:00 21.7 0 Calma 5 Este 0 -- -- 68
2019-08-06 07:00:00 20.9 0 Calma 5 Este 0 -- -- 67
2019-08-06 06:00:00 21.9 0 Calma 7 Nordeste 0 -- -- 63
2019-08-06 05:00:00 23.2 4 Nordeste 14 Este 0 -- -- 58
2019-08-06 04:00:00 23.9 9 Este 15 Este 0 -- -- 58
2019-08-06 03:00:00 25 5 Nordeste 16 Este 0 -- -- 54
2019-08-06 02:00:00 25.3 6 Nordeste 16 Nordeste 0 -- -- 49
2019-08-06 01:00:00 26.3 10 Nordeste 28 Este 0 -- -- 45
2019-08-06 00:00:00 26.9 9 Este 26 Sudeste 0 -- -- 44
2019-08-05 23:00:00 28.2 16 Este 31 Este 0 -- -- 43
2019-08-05 22:00:00 30.2 19 Este 33 Este 0 -- -- 42
2019-08-05 21:00:00 32 17 Este 27 Este 0 -- -- 38
2019-08-05 20:00:00 33.8 13 Sudeste 33 Este 0 -- -- 36
2019-08-05 19:00:00 34.8 17 Este 31 Este 0 -- -- 36
2019-08-05 18:00:00 35.5 18 Este 33 Este 0 -- -- 35
2019-08-05 17:00:00 35.9 20 Este 30 Este 0 -- -- 38
2019-08-05 16:00:00 35.3 17 Este 27 Este 0 -- -- 39
2019-08-05 15:00:00 33.9 13 Nordeste 25 Este 0 -- -- 42
2019-08-05 14:00:00 32.8 13 Este 23 Sudeste 0 -- -- 46
2019-08-05 13:00:00 31.1 10 Sur 22 Sur 0 -- -- 47
2019-08-05 12:00:00 29.6 8 Sudeste 19 Sudeste 0 -- -- 50
2019-08-05 11:00:00 27.8 9 Este 14 Este 0 -- -- 56
2019-08-05 10:00:00 25.4 7 Nordeste 10 Nordeste 0 -- -- 58
2019-08-05 09:00:00 23.3 5 Este 9 Nordeste 0 -- -- 67
2019-08-05 08:00:00 20.9 0 Calma 5 Nordeste 0 -- -- 70
2019-08-05 07:00:00 20 0 Calma 3 Nordeste 0 -- -- 69
2019-08-05 06:00:00 20.7 0 Calma 5 Oeste 0 -- -- 67
2019-08-05 05:00:00 21.2 4 Norte 7 Noroeste 0 -- -- 65
2019-08-05 04:00:00 21.9 3 Noroeste 5 Oeste 0 -- -- 63
2019-08-05 03:00:00 23 0 Calma 8 Noroeste 0 -- -- 58
2019-08-05 02:00:00 24.6 2 Este 14 Este 0 -- -- 55
2019-08-05 01:00:00 26 9 Este 23 Este 0 -- -- 51
2019-08-05 00:00:00 26.3 13 Este 24 Este 0 -- -- 56
2019-08-04 23:00:00 26.9 12 Este 21 Este 0 -- -- 57
2019-08-04 22:00:00 28.4 7 Nordeste 21 Sudeste 0 -- -- 54
2019-08-04 21:00:00 30.9 10 Este 27 Este 0 -- -- 49
2019-08-04 20:00:00 32.4 17 Sudeste 33 Este 0 -- -- 46
2019-08-04 19:00:00 33.6 20 Este 30 Este 0 -- -- 43
2019-08-04 18:00:00 35.1 22 Este 32 Nordeste 0 -- -- 39
2019-08-04 17:00:00 36.1 21 Este 31 Este 0 -- -- 37
2019-08-04 16:00:00 35.8 15 Nordeste 26 Nordeste 0 -- -- 39
2019-08-04 15:00:00 34.4 10 Nordeste 18 Nordeste 0 -- -- 42
2019-08-04 14:00:00 32.7 13 Este 20 Este 0 -- -- 46
2019-08-04 13:00:00 30.6 10 Este 16 Este 0 -- -- 49
2019-08-04 12:00:00 29.2 7 Este 17 Este 0 -- -- 52
2019-08-04 11:00:00 27.7 13 Este 21 Este 0 -- -- 55
2019-08-04 10:00:00 25.6 6 Nordeste 12 Nordeste 0 -- -- 57
2019-08-04 09:00:00 23.3 5 Este 10 Nordeste 0 -- -- 65
2019-08-04 08:00:00 21.3 0 Calma 4 Oeste 0 -- -- 67
2019-08-04 07:00:00 19.9 0 Calma 5 Nordeste 0 -- -- 70
2019-08-04 06:00:00 21.3 2 Nordeste 7 Nordeste 0 -- -- 66
2019-08-04 05:00:00 21.4 3 Este 8 Sudeste 0 -- -- 65
2019-08-04 04:00:00 22.3 0 Calma 10 Nordeste 0 -- -- 63
2019-08-04 03:00:00 23.2 6 Nordeste 14 Este 0 -- -- 61
2019-08-04 02:00:00 24.1 10 Nordeste 20 Este 0 -- -- 58
2019-08-04 01:00:00 24.9 8 Este 21 Este 0 -- -- 53
2019-08-04 00:00:00 25.2 5 Este 15 Este 0 -- -- 56
2019-08-03 23:00:00 26.3 9 Este 21 Este 0 -- -- 56
2019-08-03 22:00:00 27.4 11 Nordeste 27 Este 0 -- -- 54
2019-08-03 21:00:00 30.2 9 Sudeste 29 Sudeste 0 -- -- 48
2019-08-03 20:00:00 32.4 18 Este 29 Este 0 -- -- 44
2019-08-03 19:00:00 33.3 19 Este 31 Este 0 -- -- 43
2019-08-03 18:00:00 34.8 18 Este 32 Este 0 -- -- 35
2019-08-03 17:00:00 35.4 21 Este 36 Este 0 -- -- 34
2019-08-03 16:00:00 35.4 22 Este 35 Este 0 -- -- 32
2019-08-03 15:00:00 34 15 Este 24 Este 0 -- -- 34
2019-08-03 14:00:00 32.3 13 Este 23 Este 0 -- -- 40
2019-08-03 13:00:00 30.5 15 Este 22 Este 0 -- -- 42
2019-08-03 12:00:00 28.8 14 Este 22 Este 0 -- -- 47
2019-08-03 11:00:00 26.9 11 Nordeste 18 Este 0 -- -- 55
2019-08-03 10:00:00 24.4 11 Nordeste 16 Este 0 -- -- 58
2019-08-03 09:00:00 22.1 6 Nordeste 11 Nordeste 0 -- -- 66
2019-08-03 08:00:00 20.5 0 Calma 5 Noroeste 0 -- -- 68
2019-08-03 07:00:00 19 3 Este 6 Sudeste 0 -- -- 76
2019-08-03 06:00:00 20.8 0 Calma 12 Nordeste 0 -- -- 67
2019-08-03 05:00:00 21.7 8 Nordeste 18 Nordeste 0 -- -- 63
2019-08-03 04:00:00 22.3 13 Este 21 Este 0 -- -- 62
2019-08-03 03:00:00 22.6 13 Este 23 Este 0 -- -- 61
2019-08-03 02:00:00 23.9 13 Este 22 Este 0 -- -- 55
2019-08-03 01:00:00 24.2 9 Este 20 Este 0 -- -- 56
2019-08-03 00:00:00 25.8 9 Nordeste 18 Sudoeste 0 -- -- 52
2019-08-02 23:00:00 27.4 3 Oeste 20 Sur 0 -- -- 46
2019-08-02 22:00:00 29 14 Sur 26 Sur 0 -- -- 42
2019-08-02 21:00:00 31 14 Sudeste 30 Sudeste 0 -- -- 38
2019-08-02 20:00:00 32.8 17 Este 30 Este 0 -- -- 37
2019-08-02 19:00:00 34.4 5 Nordeste 19 Nordeste 0 -- -- 36
2019-08-02 18:00:00 34.6 10 Este 21 Este 0 -- -- 36
2019-08-02 17:00:00 34.7 14 Nordeste 26 Este 0 -- -- 35
2019-08-02 16:00:00 33.7 9 Este 19 Nordeste 0 -- -- 38
2019-08-02 15:00:00 32.5 7 Nordeste 19 Este 0 -- -- 39
2019-08-02 14:00:00 31.8 7 Sudeste 18 Nordeste 0 -- -- 41
2019-08-02 13:00:00 29.9 10 Nordeste 19 Norte 0 -- -- 46
2019-08-02 12:00:00 28 6 Oeste 19 Oeste 0 -- -- 48
2019-08-02 11:00:00 25.8 11 Oeste 21 Noroeste 0 -- -- 58
2019-08-02 10:00:00 23.5 15 Noroeste 27 Oeste 0 -- -- 64
2019-08-02 09:00:00 22 13 Oeste 21 Oeste 0 -- -- 70
2019-08-02 08:00:00 20.8 5 Oeste 13 Oeste 0 -- -- 74
2019-08-02 07:00:00 19.4 3 Sur 6 Oeste 0 -- -- 75
2019-08-02 06:00:00 19.3 2 Sur 7 Sudeste 0 -- -- 62
2019-08-02 05:00:00 19.7 0 Calma 10 Sudoeste 0 -- -- 60
2019-08-02 04:00:00 20.2 3 Oeste 8 Noroeste 0 -- -- 58
2019-08-02 03:00:00 21.2 3 Oeste 7 Oeste 0 -- -- 54
2019-08-02 02:00:00 22.1 2 Este 5 Nordeste 0 -- -- 48
2019-08-02 01:00:00 23.9 0 Calma 10 Nordeste 0 -- -- 44
2019-08-02 00:00:00 25.8 6 Sur 15 Sudoeste 0 -- -- 39
2019-08-01 23:00:00 27.1 5 Sudeste 10 Sudeste 0 -- -- 38
2019-08-01 22:00:00 28.6 8 Sur 21 Sur 0 -- -- 37
2019-08-01 21:00:00 30.1 6 Nordeste 18 Este 0 -- -- 39
2019-08-01 20:00:00 31.9 15 Este 30 Este 0 -- -- 33
2019-08-01 19:00:00 33.1 18 Este 28 Norte 0 -- -- 33
2019-08-01 18:00:00 33.4 15 Este 27 Nordeste 0 -- -- 35
2019-08-01 17:00:00 33.5 12 Nordeste 27 Este 0 -- -- 34
2019-08-01 16:00:00 33.1 19 Este 26 Este 0 -- -- 35
2019-08-01 15:00:00 31.9 15 Este 33 Este 0 -- -- 37
2019-08-01 14:00:00 31 17 Este 30 Este 0 -- -- 38
2019-08-01 13:00:00 29.7 18 Este 35 Este 0 -- -- 41
2019-08-01 12:00:00 28.7 15 Este 30 Este 0 -- -- 46
2019-08-01 11:00:00 27.4 20 Este 29 Este 0 -- -- 49
2019-08-01 10:00:00 25 12 Nordeste 14 Este 0 -- -- 66
2019-08-01 09:00:00 22.7 8 Nordeste 12 Nordeste 0 -- -- 73
2019-08-01 08:00:00 20 5 Noroeste 7 Noroeste 0 -- -- 83
2019-08-01 07:00:00 19.3 3 Noroeste 9 Nordeste 0 -- -- 84
2019-08-01 06:00:00 20.1 3 Norte 12 Este 0 -- -- 81
2019-08-01 05:00:00 21.3 6 Este 22 Este 0 -- -- 78
2019-08-01 04:00:00 21.5 10 Este 23 Este 0 -- -- 77
2019-08-01 03:00:00 22.2 11 Este 18 Este 0 -- -- 74
2019-08-01 02:00:00 22.3 6 Nordeste 14 Este 0 -- -- 76
2019-08-01 01:00:00 23.1 10 Este 17 Este 0 -- -- 73
2019-08-01 00:00:00 23.7 8 Este 14 Sudoeste 0 -- -- 71
2019-07-31 23:00:00 24.6 5 Sur 18 Sur 0 -- -- 67
2019-07-31 22:00:00 25.4 9 Sudeste 19 Este 0 -- -- 64
2019-07-31 21:00:00 27 13 Este 27 Este 0 -- -- 57
2019-07-31 20:00:00 28.6 20 Este 36 Este 0 -- -- 51
2019-07-31 19:00:00 29.9 18 Este 33 Nordeste 0 -- -- 46
2019-07-31 18:00:00 30.7 20 Este 34 Este 0 -- -- 43
2019-07-31 17:00:00 31.2 20 Este 31 Este 0 -- -- 40
2019-07-31 16:00:00 29.8 14 Nordeste 25 Nordeste 0 -- -- 39
2019-07-31 15:00:00 28.1 15 Este 26 Este 0 -- -- 39
2019-07-31 14:00:00 26.6 10 Nordeste 21 Este 0 -- -- 40
2019-07-31 13:00:00 24.7 8 Nordeste 19 Este 0 -- -- 43
2019-07-31 12:00:00 23.2 6 Sudoeste 15 Nordeste 0 -- -- 46
2019-07-31 11:00:00 21.5 9 Nordeste 16 Nordeste 0 -- -- 51
2019-07-31 10:00:00 20.4 8 Este 17 Este 0 -- -- 54
2019-07-31 09:00:00 18.6 6 Noroeste 10 Noroeste 0 -- -- 59
2019-07-31 08:00:00 16.6 4 Oeste 6 Oeste 0 -- -- 65
2019-07-31 07:00:00 15.9 0 Calma 8 Oeste 0 -- -- 66
2019-07-31 06:00:00 17.4 4 Sur 12 Sudoeste 0 -- -- 61
2019-07-31 05:00:00 17.9 9 Sudoeste 12 Sudoeste 0 -- -- 58
2019-07-31 04:00:00 18.1 8 Sudoeste 14 Sudoeste 0 -- -- 56
2019-07-31 03:00:00 18.3 7 Sudoeste 10 Sudoeste 0 -- -- 58
2019-07-31 02:00:00 18.9 7 Noroeste 10 Oeste 0 -- -- 57
2019-07-31 01:00:00 20.6 3 Oeste 17 Oeste 0 -- -- 49
2019-07-31 00:00:00 21.6 5 Oeste 13 Oeste 0 -- -- 43
2019-07-30 23:00:00 23.6 8 Oeste 22 Sudoeste 0 -- -- 37
2019-07-30 22:00:00 24.9 8 Oeste 22 Oeste 0 -- -- 35
2019-07-30 21:00:00 27.3 15 Oeste 28 Oeste 0 -- -- 29
2019-07-30 20:00:00 29.1 19 Noroeste 33 Oeste 0 -- -- 29
2019-07-30 19:00:00 30.7 17 Oeste 30 Oeste 0 -- -- 29
2019-07-30 18:00:00 31.5 12 Oeste 30 Oeste 0 -- -- 28
2019-07-30 17:00:00 31.2 15 Oeste 28 Noroeste 0 -- -- 28
2019-07-30 16:00:00 30.9 15 Oeste 24 Oeste 0 -- -- 29
2019-07-30 15:00:00 30.2 9 Norte 29 Oeste 0 -- -- 30
2019-07-30 14:00:00 28.8 15 Oeste 29 Oeste 0 -- -- 34
2019-07-30 13:00:00 27.4 12 Oeste 28 Noroeste 0 -- -- 39
2019-07-30 12:00:00 25.6 9 Oeste 24 Noroeste 0 -- -- 45
2019-07-30 11:00:00 24.5 10 Sudeste 22 Oeste 0 -- -- 49
2019-07-30 10:00:00 22.5 13 Oeste 21 Oeste 0 -- -- 53
2019-07-30 09:00:00 20.7 11 Sudoeste 23 Sudoeste 0 -- -- 59
2019-07-30 08:00:00 18.8 18 Sudoeste 25 Sur 0 -- -- 68
2019-07-30 07:00:00 18.7 12 Sur 24 Sur 0 -- -- 68
2019-07-30 06:00:00 19.2 12 Sudoeste 21 Sudoeste 0 -- -- 66
2019-07-30 05:00:00 20.4 7 Oeste 22 Sudoeste 0 -- -- 65
2019-07-30 04:00:00 21.1 12 Oeste 32 Noroeste 0 -- -- 64
2019-07-30 03:00:00 22.9 15 Oeste 24 Oeste 0 -- -- 58
2019-07-30 02:00:00 24.1 4 Norte 11 Nordeste 0 -- -- 61
2019-07-30 01:00:00 24.8 3 Sudeste 8 Norte 0 -- -- 58
2019-07-30 00:00:00 27.1 5 Nordeste 17 Este 0 -- -- 51
2019-07-29 23:00:00 28.3 8 Sudeste 23 Sudeste 0 -- -- 46
2019-07-29 22:00:00 30 14 Este 28 Sudeste 0 -- -- 42
2019-07-29 21:00:00 32.3 15 Este 23 Este 0 -- -- 28
2019-07-29 20:00:00 33.2 8 Nordeste 21 Nordeste 0 -- -- 29
2019-07-29 19:00:00 33.7 10 Este 20 Nordeste 0 -- -- 26
2019-07-29 18:00:00 34.3 8 Nordeste 18 Nordeste 0 -- -- 25
2019-07-29 17:00:00 33.9 13 Nordeste 21 Nordeste 0 -- -- 26
2019-07-29 16:00:00 33.3 9 Nordeste 18 Nordeste 0 -- -- 27
2019-07-29 15:00:00 32 10 Este 18 Este 0 -- -- 31
2019-07-29 14:00:00 30.4 9 Este 18 Este 0 -- -- 33
2019-07-29 13:00:00 28.8 8 Nordeste 17 Este 0 -- -- 37
2019-07-29 12:00:00 26.8 9 Nordeste 14 Este 0 -- -- 40
2019-07-29 11:00:00 24.4 7 Nordeste 12 Nordeste 0 -- -- 47
2019-07-29 10:00:00 21.7 6 Este 12 Nordeste 0 -- -- 56
2019-07-29 09:00:00 19.1 6 Nordeste 9 Nordeste 0 -- -- 62
2019-07-29 08:00:00 16.6 0 Calma 3 Noroeste 0 -- -- 62
2019-07-29 07:00:00 14.4 0 Calma 4 Noroeste 0 -- -- 68
2019-07-29 06:00:00 15.2 4 Noroeste 6 Oeste 0 -- -- 65
2019-07-29 05:00:00 16.5 8 Oeste 10 Oeste 0 -- -- 61
2019-07-29 04:00:00 17.4 4 Noroeste 8 Noroeste 0 -- -- 56
2019-07-29 03:00:00 18.2 4 Noroeste 8 Noroeste 0 -- -- 55
2019-07-29 02:00:00 20 5 Oeste 10 Sudoeste 0 -- -- 49
2019-07-29 01:00:00 20.2 8 Oeste 14 Oeste 0 -- -- 49
2019-07-29 00:00:00 21.3 9 Sudoeste 13 Sudoeste 0 -- -- 46
2019-07-28 23:00:00 23 7 Oeste 15 Sudoeste 0 -- -- 42
2019-07-28 22:00:00 23.9 7 Oeste 15 Oeste 0 -- -- 40
2019-07-28 21:00:00 27.2 10 Oeste 26 Oeste 0 -- -- 33
2019-07-28 20:00:00 28.9 16 Noroeste 31 Oeste 0 -- -- 27
2019-07-28 19:00:00 29.5 20 Oeste 35 Noroeste 0 -- -- 30
2019-07-28 18:00:00 29.7 16 Oeste 40 Noroeste 0 -- -- 31
2019-07-28 17:00:00 29.6 20 Oeste 39 Oeste 0 -- -- 29
2019-07-28 16:00:00 29.2 21 Oeste 40 Oeste 0 -- -- 31
2019-07-28 15:00:00 28.4 19 Oeste 38 Noroeste 0 -- -- 34
2019-07-28 14:00:00 26.7 18 Oeste 34 Noroeste 0 -- -- 37
2019-07-28 13:00:00 25.4 17 Oeste 33 Noroeste 0 -- -- 39
2019-07-28 12:00:00 24 22 Oeste 38 Oeste 0 -- -- 42
2019-07-28 11:00:00 22.6 22 Noroeste 38 Oeste 0 -- -- 49
2019-07-28 10:00:00 20.8 26 Oeste 36 Oeste 0 -- -- 57
2019-07-28 09:00:00 19.4 15 Oeste 37 Oeste 0 -- -- 60
2019-07-28 08:00:00 18.1 18 Oeste 32 Noroeste 0 -- -- 64
2019-07-28 07:00:00 16.9 22 Noroeste 50 Oeste 0 -- -- 68
2019-07-28 06:00:00 17.3 27 Noroeste 52 Oeste 0 -- -- 65
2019-07-28 05:00:00 17.3 22 Oeste 46 Noroeste 0 -- -- 66
2019-07-28 04:00:00 17.7 30 Oeste 50 Noroeste 0 -- -- 64
2019-07-28 03:00:00 18 30 Oeste 58 Noroeste 0 -- -- 63
2019-07-28 02:00:00 18.4 31 Oeste 55 Oeste 0 -- -- 59
2019-07-28 01:00:00 19 32 Oeste 57 Oeste 0 -- -- 59
2019-07-28 00:00:00 19.8 34 Oeste 56 Noroeste 0 -- -- 59
2019-07-27 23:00:00 20.4 33 Oeste 59 Oeste 0 -- -- 57
2019-07-26 12:00:00 -- -- -- -- -- -- -- -- --
2019-07-26 11:00:00 27 2 Norte 25 Este 0 -- -- 58
2019-07-26 10:00:00 27.8 8 Nordeste 12 Nordeste 0 -- -- 50
2019-07-26 09:00:00 25.5 4 Noroeste 7 Este 0 -- -- 53
2019-07-26 08:00:00 23.9 0 Calma 10 Oeste 0 -- -- 58
2019-07-26 07:00:00 23.6 8 Este 22 Nordeste 0 -- -- 59
2019-07-26 06:00:00 24.1 0 Calma 15 Nordeste 0 -- -- 55
2019-07-26 05:00:00 24.5 7 Este 17 Este 0 -- -- 53
2019-07-26 04:00:00 24.9 7 Este 16 Nordeste 0 -- -- 52
2019-07-26 03:00:00 25.2 6 Norte 11 Nordeste 0 -- -- 50
2019-07-26 02:00:00 26 7 Este 14 Sudeste 0 -- -- 45
2019-07-26 01:00:00 26.3 4 Noroeste 22 Nordeste 0 -- -- 44
2019-07-26 00:00:00 26.6 10 Nordeste 21 Nordeste 0 -- -- 50
2019-07-25 23:00:00 27.6 5 Este 17 Nordeste 0 -- -- 53
2019-07-25 22:00:00 28.9 10 Nordeste 27 Sudeste 0 -- -- 50
2019-07-25 21:00:00 29.8 21 Este 37 Este 0 -- -- 49
2019-07-25 20:00:00 32.4 15 Este 26 Este 0 -- -- 36
2019-07-25 19:00:00 33.7 14 Sudoeste 36 Sudoeste 0 -- -- 31
2019-07-25 18:00:00 36.3 15 Sudeste 38 Este 0 -- -- 34
2019-07-25 17:00:00 36.6 22 Este 38 Este 0 -- -- 33
2019-07-25 16:00:00 36.9 20 Este 35 Este 0 -- -- 30
2019-07-25 15:00:00 36.6 24 Este 37 Este 0 -- -- 30
2019-07-25 14:00:00 35.2 18 Este 27 Este 0 -- -- 34
2019-07-25 13:00:00 32.9 16 Este 30 Este 0 -- -- 39
2019-07-25 12:00:00 31.2 13 Este 22 Este 0 -- -- 40
2019-07-25 11:00:00 29.3 9 Este 17 Este 0 -- -- 45
2019-07-25 10:00:00 26.6 5 Nordeste 12 Nordeste 0 -- -- 51
2019-07-25 09:00:00 24.5 6 Nordeste 11 Este 0 -- -- 57
2019-07-25 08:00:00 21.2 0 Calma 6 Este 0 -- -- 69
2019-07-25 07:00:00 20 3 Oeste 5 Noroeste 0 -- -- 71
2019-07-25 06:00:00 21 2 Noroeste 5 Noroeste 0 -- -- 68
2019-07-25 05:00:00 22.4 0 Calma 14 Nordeste 0 -- -- 64
2019-07-25 04:00:00 23.4 9 Nordeste 22 Nordeste 0 -- -- 62
2019-07-25 03:00:00 24.4 13 Nordeste 24 Nordeste 0 -- -- 59
2019-07-25 02:00:00 25.5 10 Este 33 Este 0 -- -- 56
2019-07-25 01:00:00 27.1 21 Este 31 Este 0 -- -- 53
2019-07-25 00:00:00 27.1 5 Nordeste 21 Este 0 -- -- 57
2019-07-24 23:00:00 28.6 13 Nordeste 22 Nordeste 0 -- -- 51
2019-07-24 22:00:00 31.3 7 Sur 27 Este 0 -- -- 42
2019-07-24 21:00:00 33.4 12 Sudeste 35 Sudeste 0 -- -- 37
2019-07-24 20:00:00 36.1 21 Sudeste 37 Sur 0 -- -- 28
2019-07-24 19:00:00 37.7 18 Sudeste 31 Este 0 -- -- 25
2019-07-24 18:00:00 38.3 18 Este 30 Este 0 -- -- 27
2019-07-24 17:00:00 38.7 18 Este 28 Este 0 -- -- 29
2019-07-24 16:00:00 38 18 Este 28 Este 0 -- -- 30
2019-07-24 15:00:00 37.5 14 Este 21 Este 0 -- -- 29
2019-07-24 14:00:00 35.1 11 Nordeste 20 Este 0 -- -- 32
2019-07-24 13:00:00 33 12 Nordeste 21 Este 0 -- -- 37
2019-07-24 12:00:00 30.5 14 Este 18 Este 0 -- -- 46
2019-07-24 11:00:00 28.3 10 Este 15 Este 0 -- -- 50
2019-07-24 10:00:00 25.9 9 Este 13 Nordeste 0 -- -- 52
2019-07-24 09:00:00 23.6 6 Nordeste 12 Nordeste 0 -- -- 56
2019-07-24 08:00:00 21.2 5 Nordeste 12 Oeste 0 -- -- 61
2019-07-24 07:00:00 20 5 Sudoeste 9 Oeste 0 -- -- 59
2019-07-24 06:00:00 20.9 3 Noroeste 10 Oeste 0 -- -- 58
2019-07-24 05:00:00 22.1 2 Oeste 9 Oeste 0 -- -- 52
2019-07-24 04:00:00 23.3 5 Este 8 Nordeste 0 -- -- 53
2019-07-24 03:00:00 26 4 Nordeste 29 Este 0 -- -- 43
2019-07-24 02:00:00 26.7 17 Nordeste 36 Este 0 -- -- 38
2019-07-24 01:00:00 26.5 4 Norte 15 Este 0 -- -- 39
2019-07-24 00:00:00 28.5 4 Este 16 Este 0 -- -- 37
2019-07-23 23:00:00 30.9 10 Sudeste 29 Sur 0 -- -- 31
2019-07-23 22:00:00 32.3 12 Sudeste 24 Sur 0 -- -- 29
2019-07-23 21:00:00 34.7 10 Sudeste 35 Sudeste 0 -- -- 26
2019-07-23 20:00:00 37 15 Sur 37 Sudeste 0 -- -- 25
2019-07-23 19:00:00 38 22 Este 38 Este 0 -- -- 24
2019-07-23 18:00:00 38.9 21 Este 35 Este 0 -- -- 21
2019-07-23 17:00:00 39.7 16 Este 28 Nordeste 0 -- -- 22
2019-07-23 16:00:00 39 13 Nordeste 23 Nordeste 0 -- -- 24
2019-07-23 15:00:00 38 15 Nordeste 22 Nordeste 0 -- -- 25
2019-07-23 14:00:00 35.7 11 Este 24 Nordeste 0 -- -- 29
2019-07-23 13:00:00 34.3 15 Este 22 Este 0 -- -- 32
2019-07-23 12:00:00 31.5 10 Este 15 Nordeste 0 -- -- 39
2019-07-23 11:00:00 29.4 8 Nordeste 14 Nordeste 0 -- -- 39
2019-07-23 10:00:00 27 10 Nordeste 13 Nordeste 0 -- -- 50
2019-07-23 09:00:00 23.8 5 Nordeste 9 Nordeste 0 -- -- 57
2019-07-23 08:00:00 20.7 0 Calma 4 Oeste 0 -- -- 63
2019-07-23 07:00:00 18.9 0 Calma 5 Noroeste 0 -- -- 67
2019-07-23 06:00:00 19.3 3 Oeste 4 Noroeste 0 -- -- 66
2019-07-23 05:00:00 20.1 2 Norte 6 Nordeste 0 -- -- 63
2019-07-23 04:00:00 21.5 3 Este 4 Este 0 -- -- 58
2019-07-23 03:00:00 23.1 0 Calma 9 Este 0 -- -- 53
2019-07-23 02:00:00 24.5 3 Nordeste 8 Este 0 -- -- 51
2019-07-23 01:00:00 27 3 Norte 16 Este 0 -- -- 44
2019-07-23 00:00:00 27.9 12 Nordeste 18 Este 0 -- -- 43
2019-07-22 23:00:00 29.1 5 Este 14 Este 0 -- -- 39
2019-07-22 22:00:00 31 4 Este 24 Este 0 -- -- 37
2019-07-22 21:00:00 32.4 11 Este 21 Este 0 -- -- 34
2019-07-22 20:00:00 34.3 14 Sudeste 34 Este 0 -- -- 31
2019-07-22 19:00:00 36.7 22 Este 36 Este 0 -- -- 28
2019-07-22 18:00:00 38 16 Este 40 Este 0 -- -- 26
2019-07-22 17:00:00 38.4 23 Este 35 Este 0 -- -- 25
2019-07-22 16:00:00 38.6 21 Este 29 Este 0 -- -- 23
2019-07-22 15:00:00 37.2 14 Este 28 Este 0 -- -- 24
2019-07-22 14:00:00 35.8 14 Este 26 Este 0 -- -- 23
2019-07-22 13:00:00 33.5 14 Este 21 Este 0 -- -- 33
2019-07-22 12:00:00 31.1 13 Este 21 Este 0 -- -- 39
2019-07-22 11:00:00 28.3 9 Nordeste 13 Nordeste 0 -- -- 45
2019-07-22 10:00:00 26.4 7 Nordeste 13 Nordeste 0 -- -- 50
2019-07-22 09:00:00 23.1 3 Este 9 Este 0 -- -- 64
2019-07-22 08:00:00 20.3 2 Noroeste 5 Nordeste 0 -- -- 70
2019-07-22 07:00:00 19.3 3 Noroeste 5 Oeste 0 -- -- 73
2019-07-22 06:00:00 19.9 0 Calma 11 Nordeste 0 -- -- 72
2019-07-22 05:00:00 21 3 Este 13 Nordeste 0 -- -- 68
2019-07-22 04:00:00 22.5 2 Sudeste 15 Nordeste 0 -- -- 62
2019-07-22 03:00:00 22.3 2 Noroeste 8 Oeste 0 -- -- 60
2019-07-22 02:00:00 24.5 3 Norte 14 Este 0 -- -- 53
2019-07-22 01:00:00 26.3 2 Este 16 Este 0 -- -- 47
2019-07-22 00:00:00 27.2 8 Nordeste 17 Nordeste 0 -- -- 45
2019-07-21 23:00:00 28.5 12 Este 28 Este 0 -- -- 41
2019-07-21 22:00:00 29.7 12 Este 27 Este 0 -- -- 38
2019-07-21 21:00:00 31.5 13 Este 37 Sudeste 0 -- -- 33
2019-07-21 20:00:00 33.1 22 Sudeste 35 Este 0 -- -- 29
2019-07-21 19:00:00 34.4 23 Sudeste 35 Sudeste 0 -- -- 27
2019-07-21 18:00:00 35.7 18 Sudeste 35 Este 0 -- -- 27
2019-07-21 17:00:00 35.8 23 Este 37 Este 0 -- -- 32
2019-07-21 16:00:00 35.8 26 Este 38 Nordeste 0 -- -- 33
2019-07-21 15:00:00 35.5 22 Este 34 Nordeste 0 -- -- 32
2019-07-21 14:00:00 33.8 21 Este 31 Este 0 -- -- 38
2019-07-21 13:00:00 31.6 16 Este 25 Este 0 -- -- 45
2019-07-21 12:00:00 30.1 12 Este 19 Sur 0 -- -- 54
2019-07-21 11:00:00 28.7 10 Sur 24 Sur 0 -- -- 52
2019-07-21 10:00:00 26.9 7 Sur 15 Este 0 -- -- 62
2019-07-21 09:00:00 24.5 9 Nordeste 13 Nordeste 0 -- -- 65
2019-07-21 08:00:00 22.7 4 Nordeste 8 Nordeste 0 -- -- 69
2019-07-21 07:00:00 21.8 5 Nordeste 12 Nordeste 0 -- -- 72
2019-07-21 06:00:00 22.3 9 Nordeste 19 Este 0 -- -- 68
2019-07-21 05:00:00 22.8 9 Este 16 Este 0 -- -- 66
2019-07-21 04:00:00 23.3 9 Nordeste 24 Nordeste 0 -- -- 63
2019-07-21 03:00:00 24 15 Este 27 Sudeste 0 -- -- 58
2019-07-21 02:00:00 24.7 16 Este 27 Este 0 -- -- 55
2019-07-21 01:00:00 24.9 12 Este 24 Este 0 -- -- 55
2019-07-21 00:00:00 26.2 10 Este 25 Este 0 -- -- 47
2019-07-20 23:00:00 26.9 10 Este 32 Este 0 -- -- 46
2019-07-20 22:00:00 28 19 Este 30 Sudeste 0 -- -- 44
2019-07-20 21:00:00 29.4 10 Este 28 Sur 0 -- -- 47
2019-07-20 20:00:00 31.1 17 Este 34 Este 0 -- -- 46
2019-07-20 19:00:00 33.4 16 Sudeste 40 Este 0 -- -- 41
2019-07-20 18:00:00 34.2 25 Este 40 Este 0 -- -- 38
2019-07-20 17:00:00 35.1 25 Este 36 Sudeste 0 -- -- 39
2019-07-20 16:00:00 35.5 17 Este 28 Nordeste 0 -- -- 34
2019-07-20 15:00:00 34.4 14 Este 28 Nordeste 0 -- -- 38
2019-07-20 14:00:00 32.6 13 Este 25 Nordeste 0 -- -- 42
2019-07-20 13:00:00 31.1 13 Este 25 Este 0 -- -- 46
2019-07-20 12:00:00 29.3 11 Este 24 Este 0 -- -- 54
2019-07-20 11:00:00 27.7 12 Este 25 Este 0 -- -- 59
2019-07-20 10:00:00 26.1 11 Nordeste 16 Este 0 -- -- 65
2019-07-20 09:00:00 23.6 9 Este 13 Nordeste 0 -- -- 71
2019-07-20 08:00:00 22.2 8 Nordeste 15 Nordeste 0 -- -- 74
2019-07-20 07:00:00 21.4 4 Este 10 Nordeste 0 -- -- 76
2019-07-20 06:00:00 21.6 6 Este 15 Nordeste 0 -- -- 74
2019-07-20 05:00:00 22 7 Nordeste 18 Este 0 -- -- 71
2019-07-20 04:00:00 22.4 8 Este 18 Nordeste 0 -- -- 66
2019-07-20 03:00:00 22.9 10 Este 18 Este 0 -- -- 63
2019-07-20 02:00:00 23.5 9 Este 33 Este 0 -- -- 61
2019-07-20 01:00:00 24.3 24 Este 35 Este 0 -- -- 67
2019-07-20 00:00:00 24.8 17 Este 26 Este 0 -- -- 60
2019-07-19 23:00:00 25.8 11 Este 22 Este 0 -- -- 52
2019-07-19 22:00:00 27.3 11 Este 24 Este 0 -- -- 46
2019-07-19 21:00:00 28.9 14 Este 31 Este 0 -- -- 44
2019-07-19 20:00:00 30.9 19 Este 32 Este 0 -- -- 39
2019-07-19 19:00:00 31.8 21 Este 33 Este 0 -- -- 38
2019-07-19 18:00:00 33.3 20 Este 35 Este 0 -- -- 37
2019-07-19 17:00:00 33.9 18 Este 30 Este 0 -- -- 39
2019-07-19 16:00:00 33 12 Nordeste 26 Este 0 -- -- 33
2019-07-19 15:00:00 31.8 14 Este 22 Este 0 -- -- 34
2019-07-19 14:00:00 29.9 15 Este 22 Nordeste 0 -- -- 41
2019-07-19 13:00:00 27.9 11 Este 18 Este 0 -- -- 47
2019-07-19 12:00:00 26.4 9 Este 17 Nordeste 0 -- -- 51
2019-07-19 11:00:00 25.2 8 Este 15 Este 0 -- -- 50
2019-07-19 10:00:00 23.8 8 Nordeste 12 Este 0 -- -- 56
2019-07-19 09:00:00 20.8 6 Oeste 11 Oeste 0 -- -- 64
2019-07-19 08:00:00 19.7 2 Norte 5 Noroeste 0 -- -- 68
2019-07-19 07:00:00 17.7 0 Calma 4 Sur 0 -- -- 72
2019-07-19 06:00:00 17.8 2 Sudeste 6 Oeste 0 -- -- 71
2019-07-19 05:00:00 18.4 3 Sudoeste 6 Noroeste 0 -- -- 68
2019-07-19 04:00:00 19.6 0 Calma 8 Oeste 0 -- -- 65
2019-07-19 03:00:00 20.8 6 Oeste 9 Oeste 0 -- -- 61
2019-07-19 02:00:00 21.3 3 Noroeste 8 Noroeste 0 -- -- 55
2019-07-19 01:00:00 22.7 3 Oeste 6 Noroeste 0 -- -- 50
2019-07-19 00:00:00 24.1 4 Noroeste 11 Oeste 0 -- -- 46